Time;durP1;ratioP1;P1;durP2;ratioP2;P2;SDS_P1;SDS_P2;PMS_P1;PMS_P2;Temp;Humidity;BMP_temperature;BMP_pressure;BME280_temperature;BME280_humidity;BME280_pressure;Samples;Min_cycle;Max_cycle;Signal;HPM_P1;HPM_P2
2023/02/28 00:00:24;;;;;;;1.50;0.80;;;15.20;51.20;;;;;;6256029;22;20023;-76
2023/02/28 00:02:50;;;;;;;1.92;1.15;;;15.20;51.30;;;;;;6255715;22;20016;-76
2023/02/28 00:05:20;;;;;;;1.48;0.80;;;15.20;51.20;;;;;;6255903;22;20027;-76
2023/02/28 00:07:47;;;;;;;2.15;1.00;;;15.20;51.50;;;;;;6255861;22;20011;-76
2023/02/28 00:10:20;;;;;;;2.70;0.77;;;15.20;51.40;;;;;;6255914;22;20068;-76
2023/02/28 00:12:47;;;;;;;1.10;0.80;;;15.20;51.50;;;;;;6245790;22;20064;-76
2023/02/28 00:15:12;;;;;;;1.63;0.95;;;15.20;51.50;;;;;;6255767;22;20381;-76
2023/02/28 00:17:38;;;;;;;1.48;0.80;;;15.20;51.40;;;;;;6255800;22;20023;-76
2023/02/28 00:20:09;;;;;;;0.70;0.68;;;15.20;51.60;;;;;;6255931;22;20000;-76
2023/02/28 00:22:35;;;;;;;2.60;1.00;;;15.20;51.50;;;;;;6255845;22;20004;-76
2023/02/28 00:25:01;;;;;;;1.40;0.70;;;15.20;51.50;;;;;;6255726;22;20015;-76
2023/02/28 00:27:27;;;;;;;1.67;0.80;;;15.20;51.70;;;;;;6255623;22;20004;-76
2023/02/28 00:29:53;;;;;;;1.92;0.80;;;15.20;52.20;;;;;;6255695;22;20495;-76
2023/02/28 00:32:19;;;;;;;0.70;0.55;;;15.20;51.70;;;;;;6245348;22;20003;-76
2023/02/28 00:34:45;;;;;;;1.60;0.70;;;15.20;51.80;;;;;;6245890;22;19996;-77
2023/02/28 00:37:14;;;;;;;0.73;0.60;;;15.20;51.80;;;;;;6255625;22;19999;-77
2023/02/28 00:39:40;;;;;;;1.08;0.77;;;15.10;51.60;;;;;;6255748;22;19996;-76
2023/02/28 00:42:07;;;;;;;0.63;0.60;;;15.20;51.60;;;;;;6255509;22;20004;-76
2023/02/28 00:44:33;;;;;;;0.70;0.60;;;15.20;51.80;;;;;;6255583;22;20059;-76
2023/02/28 00:46:59;;;;;;;1.30;1.00;;;15.20;51.80;;;;;;6255486;22;20043;-76
2023/02/28 00:49:26;;;;;;;1.45;0.80;;;15.20;51.80;;;;;;6245596;22;20045;-76
2023/02/28 00:51:52;;;;;;;0.88;0.65;;;15.10;51.70;;;;;;6255526;22;19996;-77
2023/02/28 00:54:18;;;;;;;0.93;0.70;;;15.10;51.70;;;;;;6255405;22;20050;-76
2023/02/28 00:56:45;;;;;;;1.23;0.80;;;15.20;59.90;;;;;;6255428;22;20122;-76
2023/02/28 00:59:12;;;;;;;0.68;0.50;;;15.10;51.70;;;;;;6245587;22;20258;-76
2023/02/28 01:01:37;;;;;;;1.95;0.77;;;15.10;52.40;;;;;;6245399;22;20335;-76
2023/02/28 01:04:03;;;;;;;1.30;0.80;;;15.10;51.70;;;;;;6253705;23;20011;-76
2023/02/28 01:06:28;;;;;;;0.85;0.60;;;15.10;51.80;;;;;;6255018;22;20010;-77
2023/02/28 01:08:54;;;;;;;0.88;0.60;;;15.10;51.80;;;;;;6255340;22;19996;-76
2023/02/28 01:11:20;;;;;;;0.82;0.57;;;15.10;52.40;;;;;;6255148;22;20022;-76
2023/02/28 01:13:46;;;;;;;1.75;0.85;;;15.10;52.40;;;;;;6255266;22;20004;-77
2023/02/28 01:16:13;;;;;;;1.00;0.68;;;15.10;51.70;;;;;;6255274;22;20058;-77
2023/02/28 01:18:39;;;;;;;1.85;0.80;;;15.10;51.70;;;;;;6255195;22;20443;-77
2023/02/28 01:21:07;;;;;;;1.85;0.68;;;15.10;51.80;;;;;;6255295;22;20000;-77
2023/02/28 01:23:33;;;;;;;0.80;0.57;;;15.10;52.50;;;;;;6255118;22;19996;-77
2023/02/28 01:26:05;;;;;;;1.15;0.70;;;15.10;52.40;;;;;;6255191;22;20003;-77
2023/02/28 01:28:31;;;;;;;2.00;0.70;;;15.10;52.40;;;;;;6255200;22;20014;-78
2023/02/28 01:30:57;;;;;;;1.50;0.77;;;15.10;51.70;;;;;;6255136;22;20058;-77
2023/02/28 01:33:22;;;;;;;0.43;0.43;;;15.10;51.80;;;;;;6255215;22;20071;-78
2023/02/28 01:35:48;;;;;;;0.95;0.82;;;15.00;52.40;;;;;;6255126;22;20000;-77
2023/02/28 01:38:14;;;;;;;1.13;0.70;;;15.00;51.80;;;;;;6255142;22;20004;-77
2023/02/28 01:40:39;;;;;;;1.02;0.77;;;15.00;51.80;;;;;;6255013;22;19996;-76
2023/02/28 01:43:24;;;;;;;1.23;0.55;;;15.10;51.80;;;;;;6253636;23;20067;-76
2023/02/28 01:45:51;;;;;;;1.55;0.75;;;15.00;51.80;;;;;;6245170;22;20340;-76
2023/02/28 01:48:18;;;;;;;1.17;0.68;;;15.10;52.40;;;;;;6255033;22;20377;-77
2023/02/28 01:50:46;;;;;;;1.17;0.60;;;15.10;51.80;;;;;;6255161;22;19992;-77
2023/02/28 01:53:17;;;;;;;1.00;0.80;;;15.10;51.80;;;;;;6255224;22;19996;-77
2023/02/28 01:55:48;;;;;;;0.65;0.43;;;15.00;51.80;;;;;;6254985;22;20011;-77
2023/02/28 01:58:14;;;;;;;1.35;0.93;;;15.00;51.80;;;;;;6255105;22;20048;-77
2023/02/28 02:00:42;;;;;;;0.70;0.60;;;15.00;51.80;;;;;;6254963;22;19996;-77
2023/02/28 02:03:18;;;;;;;1.15;0.77;;;15.00;51.80;;;;;;6254719;22;20347;-77
2023/02/28 02:05:47;;;;;;;0.85;0.55;;;15.00;51.90;;;;;;6254899;22;19992;-77
2023/02/28 02:08:17;;;;;;;1.30;0.63;;;15.00;51.90;;;;;;6255041;22;20103;-77
2023/02/28 02:10:51;;;;;;;1.75;0.55;;;15.00;51.90;;;;;;6255049;22;19997;-77
2023/02/28 02:13:25;;;;;;;1.27;0.70;;;15.00;52.50;;;;;;6245122;22;20327;-77
2023/02/28 02:16:10;;;;;;;1.13;0.70;;;15.00;51.90;;;;;;6244964;22;20031;-77
2023/02/28 02:18:58;;;;;;;1.05;0.77;;;15.00;51.90;;;;;;6245350;22;20011;-76
2023/02/28 02:21:41;;;;;;;1.85;0.82;;;15.00;51.80;;;;;;6246772;22;19993;-77
2023/02/28 02:24:47;;;;;;;1.95;0.80;;;15.00;52.00;;;;;;6246800;22;20496;-77
2023/02/28 02:27:46;;;;;;;3.20;0.80;;;14.90;51.90;;;;;;6247093;22;20328;-77
2023/02/28 02:30:46;;;;;;;0.88;0.57;;;15.00;52.70;;;;;;6247073;23;20062;-77
2023/02/28 02:33:26;;;;;;;0.82;0.50;;;14.90;52.00;;;;;;6256916;22;19996;-77
2023/02/28 02:35:55;;;;;;;0.85;0.73;;;14.90;52.00;;;;;;6256818;22;19996;-77
2023/02/28 02:38:30;;;;;;;1.52;0.60;;;14.90;52.00;;;;;;6256913;22;19996;-77
2023/02/28 02:41:10;;;;;;;0.65;0.52;;;14.90;52.00;;;;;;6256775;22;20026;-78
2023/02/28 02:43:44;;;;;;;1.52;0.70;;;14.90;52.00;;;;;;6256809;22;20447;-77
2023/02/28 02:46:28;;;;;;;0.55;0.50;;;14.90;52.10;;;;;;6256770;22;20324;-77
2023/02/28 02:48:56;;;;;;;1.90;0.70;;;14.90;52.10;;;;;;6256628;22;20007;-78
2023/02/28 02:51:24;;;;;;;1.60;0.80;;;14.90;52.00;;;;;;6256751;22;20388;-78
2023/02/28 02:54:05;;;;;;;1.77;0.52;;;14.90;52.10;;;;;;6256545;22;19996;-77
2023/02/28 02:56:34;;;;;;;1.08;0.63;;;14.90;52.10;;;;;;6246859;22;20068;-78
2023/02/28 02:59:04;;;;;;;1.15;0.50;;;14.90;52.10;;;;;;6246356;22;19992;-78
2023/02/28 03:01:31;;;;;;;1.80;0.82;;;14.90;52.10;;;;;;6246384;22;20511;-78
2023/02/28 03:04:10;;;;;;;1.75;0.90;;;14.90;52.10;;;;;;6246109;22;20082;-77
2023/02/28 03:06:36;;;;;;;1.40;0.77;;;14.90;52.10;;;;;;6256650;22;20008;-78
2023/02/28 03:09:02;;;;;;;0.95;0.70;;;14.90;52.10;;;;;;6256487;22;20019;-78
2023/02/28 03:11:28;;;;;;;1.55;0.63;;;14.90;52.20;;;;;;6256594;22;20022;-78
2023/02/28 03:14:00;;;;;;;0.70;0.50;;;14.90;52.10;;;;;;6256355;22;20050;-77
2023/02/28 03:16:44;;;;;;;1.00;0.65;;;14.90;52.20;;;;;;6256405;22;20020;-77
2023/02/28 03:19:16;;;;;;;1.40;0.70;;;14.90;52.20;;;;;;6244615;23;20000;-78
2023/02/28 03:22:03;;;;;;;1.88;0.85;;;14.90;52.20;;;;;;6256413;22;19992;-77
2023/02/28 03:24:44;;;;;;;1.73;0.70;;;14.80;52.20;;;;;;6256706;22;20000;-78
2023/02/28 03:27:14;;;;;;;;;;;14.80;52.30;;;;;;6256991;22;20443;-78
2023/02/28 03:29:46;;;;;;;;;;;14.80;52.30;;;;;;6256869;22;20033;-77
2023/02/28 03:32:26;;;;;;;1.10;0.70;;;14.90;52.30;;;;;;6256587;22;19899;-78
2023/02/28 03:35:13;;;;;;;1.17;0.88;;;14.90;52.30;;;;;;6256403;22;20022;-78
2023/02/28 03:37:43;;;;;;;1.13;0.57;;;14.80;52.30;;;;;;6256273;22;19996;-78
2023/02/28 03:40:13;;;;;;;0.68;0.50;;;14.80;52.40;;;;;;6256269;22;20008;-78
2023/02/28 03:42:44;;;;;;;0.98;0.50;;;14.80;52.30;;;;;;6256724;22;20031;-77
2023/02/28 03:45:28;;;;;;;1.38;0.55;;;14.90;52.40;;;;;;6256187;22;20320;-77
2023/02/28 03:48:00;;;;;;;1.33;0.98;;;14.80;52.40;;;;;;6256086;22;20382;-76
2023/02/28 03:50:42;;;;;;;0.90;0.60;;;14.80;52.40;;;;;;6256301;22;20011;-77
2023/02/28 03:53:29;;;;;;;0.88;0.60;;;14.80;52.30;;;;;;6256082;22;20038;-77
2023/02/28 03:56:20;;;;;;;1.17;0.60;;;14.80;52.30;;;;;;6256127;22;20000;-77
2023/02/28 03:59:05;;;;;;;1.05;0.55;;;14.80;52.40;;;;;;6256136;22;20071;-77
2023/02/28 04:01:37;;;;;;;2.40;0.60;;;14.80;52.40;;;;;;6256057;22;20075;-77
2023/02/28 04:04:04;;;;;;;1.35;0.50;;;14.80;52.40;;;;;;6243950;23;20162;-76
2023/02/28 04:06:31;;;;;;;0.80;0.50;;;14.80;52.40;;;;;;6255929;22;20005;-77
2023/02/28 04:08:57;;;;;;;1.67;0.60;;;14.80;52.40;;;;;;6255893;22;20003;-77
2023/02/28 04:11:45;;;;;;;0.80;0.68;;;14.80;52.50;;;;;;6255943;22;20000;-76
2023/02/28 04:14:11;;;;;;;1.00;0.40;;;14.80;52.50;;;;;;6255906;22;20389;-77
2023/02/28 04:16:39;;;;;;;0.85;0.60;;;14.80;52.40;;;;;;6246028;22;20007;-77
2023/02/28 04:19:06;;;;;;;1.17;0.63;;;14.80;52.40;;;;;;6255784;22;19996;-77
2023/02/28 04:21:35;;;;;;;0.85;0.60;;;14.80;52.50;;;;;;6246032;22;20327;-78
2023/02/28 04:24:01;;;;;;;1.10;0.60;;;14.80;52.40;;;;;;6245461;22;20003;-78
2023/02/28 04:26:35;;;;;;;1.38;0.70;;;14.80;52.50;;;;;;6255744;22;20008;-78
2023/02/28 04:29:03;;;;;;;0.73;0.40;;;14.80;52.50;;;;;;6255796;22;20320;-78
2023/02/28 04:31:28;;;;;;;0.80;0.70;;;14.80;52.50;;;;;;6255665;22;19996;-78
2023/02/28 04:33:54;;;;;;;1.75;0.70;;;14.70;52.50;;;;;;6255799;22;20000;-78
2023/02/28 04:36:19;;;;;;;1.65;0.60;;;14.70;52.50;;;;;;6255640;22;19998;-78
2023/02/28 04:38:46;;;;;;;1.05;0.60;;;14.80;52.60;;;;;;6255833;22;20004;-77
2023/02/28 04:41:13;;;;;;;1.10;0.60;;;14.70;52.50;;;;;;6255206;22;19993;-77
2023/02/28 04:43:39;;;;;;;0.85;0.47;;;14.70;52.50;;;;;;6255610;22;20000;-77
2023/02/28 04:46:05;;;;;;;0.40;0.40;;;14.70;52.50;;;;;;6255442;22;20070;-77
2023/02/28 04:48:33;;;;;;;0.88;0.60;;;14.70;52.70;;;;;;6255474;22;19999;-78
2023/02/28 04:51:04;;;;;;;0.93;0.47;;;14.70;52.80;;;;;;6255655;22;19996;-79
2023/02/28 04:53:30;;;;;;;0.93;0.50;;;14.70;52.80;;;;;;6255404;22;20024;-78
2023/02/28 04:55:58;;;;;;;1.05;0.70;;;14.70;52.80;;;;;;6243713;23;20000;-78
2023/02/28 04:58:24;;;;;;;1.08;0.65;;;14.70;52.80;;;;;;6255367;22;20004;-78
2023/02/28 05:00:51;;;;;;;0.52;0.52;;;14.70;52.80;;;;;;6255376;22;19997;-78
2023/02/28 05:03:17;;;;;;;1.55;0.50;;;14.70;52.80;;;;;;6255077;22;20008;-78
2023/02/28 05:05:43;;;;;;;0.88;0.45;;;14.70;52.90;;;;;;6255325;22;19996;-78
2023/02/28 05:08:09;;;;;;;0.60;0.50;;;14.70;52.80;;;;;;6255210;22;20004;-77
2023/02/28 05:10:35;;;;;;;0.88;0.55;;;14.70;53.50;;;;;;6255383;22;20039;-77
2023/02/28 05:13:01;;;;;;;1.00;0.55;;;14.70;52.90;;;;;;6255454;22;20027;-78
2023/02/28 05:15:27;;;;;;;1.02;0.70;;;14.70;52.90;;;;;;6255354;22;19999;-78
2023/02/28 05:17:53;;;;;;;1.05;0.50;;;14.70;52.90;;;;;;6255423;22;20058;-78
2023/02/28 05:20:20;;;;;;;1.23;0.55;;;14.70;52.90;;;;;;6255250;22;19992;-78
2023/02/28 05:22:46;;;;;;;0.98;0.50;;;14.70;52.90;;;;;;6245371;22;20000;-78
2023/02/28 05:25:17;;;;;;;0.85;0.38;;;14.80;53.00;;;;;;6255134;22;20315;-78
2023/02/28 05:27:44;;;;;;;1.92;0.60;;;14.70;52.90;;;;;;6255138;22;20387;-78
2023/02/28 05:30:10;;;;;;;0.65;0.50;;;14.70;52.90;;;;;;6245048;22;19999;-77
2023/02/28 05:32:42;;;;;;;1.02;0.40;;;14.70;52.90;;;;;;6255043;22;20000;-78
2023/02/28 05:35:10;;;;;;;0.60;0.57;;;14.70;52.90;;;;;;6245049;22;19992;-77
2023/02/28 05:37:37;;;;;;;1.10;0.40;;;14.70;52.90;;;;;;6255146;22;20026;-77
2023/02/28 05:40:10;;;;;;;0.47;0.45;;;14.70;52.90;;;;;;6255019;22;19992;-77
2023/02/28 05:42:36;;;;;;;0.55;0.40;;;14.70;52.90;;;;;;6245121;22;20004;-77
2023/02/28 05:45:01;;;;;;;1.00;0.57;;;14.70;52.90;;;;;;6255037;22;20071;-77
2023/02/28 05:47:27;;;;;;;0.95;0.50;;;14.70;52.90;;;;;;6254889;22;20406;-77
2023/02/28 05:49:53;;;;;;;1.73;0.70;;;14.70;53.50;;;;;;6255100;22;19997;-76
2023/02/28 05:52:18;;;;;;;0.57;0.40;;;14.70;52.90;;;;;;6253686;23;19996;-77
2023/02/28 05:54:45;;;;;;;1.45;0.70;;;14.70;52.90;;;;;;6254978;22;20308;-77
2023/02/28 05:57:11;;;;;;;0.57;0.47;;;14.70;52.90;;;;;;6255034;22;20420;-77
2023/02/28 05:59:39;;;;;;;0.70;0.40;;;14.70;53.00;;;;;;6254883;22;19992;-77
2023/02/28 06:02:11;;;;;;;0.65;0.55;;;14.70;53.00;;;;;;6254986;22;20339;-77
2023/02/28 06:04:37;;;;;;;0.75;0.50;;;14.70;53.10;;;;;;6254699;22;20015;-77
2023/02/28 06:07:03;;;;;;;0.75;0.73;;;14.70;53.20;;;;;;6245009;22;20036;-77
2023/02/28 06:09:29;;;;;;;1.00;0.50;;;14.70;53.10;;;;;;6245109;22;20150;-77
2023/02/28 06:12:05;;;;;;;0.77;0.60;;;14.70;53.20;;;;;;6245116;22;20500;-76
2023/02/28 06:14:33;;;;;;;0.60;0.50;;;14.70;53.20;;;;;;6244994;22;19996;-77
2023/02/28 06:17:00;;;;;;;0.93;0.43;;;14.70;53.30;;;;;;6244693;22;19996;-77
2023/02/28 06:19:27;;;;;;;2.00;0.90;;;14.70;53.30;;;;;;6245005;22;20067;-77
2023/02/28 06:21:53;;;;;;;0.95;0.95;;;14.70;53.40;;;;;;6255447;22;19996;-77
2023/02/28 06:24:20;;;;;;;2.25;1.15;;;14.70;53.40;;;;;;6255017;22;19996;-77
2023/02/28 06:26:46;;;;;;;1.25;1.15;;;14.70;53.40;;;;;;6242901;23;20485;-77
2023/02/28 06:29:12;;;;;;;1.65;1.52;;;14.70;53.50;;;;;;6254972;22;19992;-77
2023/02/28 06:31:38;;;;;;;1.90;1.80;;;14.70;53.50;;;;;;6254791;22;20004;-77
2023/02/28 06:34:04;;;;;;;2.90;2.70;;;14.70;53.60;;;;;;6254801;22;20327;-77
2023/02/28 06:36:30;;;;;;;3.40;3.20;;;14.70;54.20;;;;;;6254724;22;20046;-77
2023/02/28 06:38:56;;;;;;;3.88;3.58;;;14.70;53.60;;;;;;6254681;22;20004;-77
2023/02/28 06:41:26;;;;;;;4.95;4.53;;;14.70;53.70;;;;;;6254868;22;20000;-77
2023/02/28 06:43:53;;;;;;;5.47;5.18;;;14.70;53.80;;;;;;6254771;22;20084;-76
2023/02/28 06:46:18;;;;;;;5.50;5.20;;;14.70;53.80;;;;;;6254742;22;20008;-77
2023/02/28 06:48:45;;;;;;;6.43;6.03;;;14.70;53.80;;;;;;6254701;22;20069;-77
2023/02/28 06:51:16;;;;;;;7.85;7.35;;;14.70;53.80;;;;;;6244845;22;20000;-73
2023/02/28 06:53:42;;;;;;;7.82;7.32;;;14.70;53.90;;;;;;6254645;22;19997;-80
2023/02/28 06:56:12;;;;;;;7.88;7.38;;;14.70;53.80;;;;;;6254660;22;20050;-80
2023/02/28 06:58:39;;;;;;;8.40;7.90;;;14.70;53.90;;;;;;6262219;22;20000;-78
2023/02/28 07:01:05;;;;;;;9.02;8.32;;;14.70;53.90;;;;;;6257079;22;19996;-82
2023/02/28 07:03:31;;;;;;;8.95;8.25;;;14.70;54.00;;;;;;6254410;22;20008;-77
2023/02/28 07:05:57;;;;;;;8.93;8.40;;;14.70;53.90;;;;;;6245993;22;20381;-78
2023/02/28 07:08:24;;;;;;;8.40;7.90;;;14.70;53.90;;;;;;6256545;22;20008;-78
2023/02/28 07:10:56;;;;;;;9.00;8.40;;;14.70;53.90;;;;;;6256429;22;19992;-80
2023/02/28 07:13:22;;;;;;;8.25;7.75;;;14.70;53.90;;;;;;6256500;22;20054;-80
2023/02/28 07:15:55;;;;;;;8.18;7.63;;;14.70;53.90;;;;;;6244520;23;20498;-78
2023/02/28 07:18:20;;;;;;;8.13;7.63;;;14.70;53.90;;;;;;6256373;22;20003;-80
2023/02/28 07:20:46;;;;;;;7.88;7.28;;;14.70;53.90;;;;;;6256209;22;19996;-79
2023/02/28 07:23:11;;;;;;;6.57;6.18;;;14.70;53.90;;;;;;6256320;22;19997;-78
2023/02/28 07:25:37;;;;;;;7.10;6.60;;;14.70;53.80;;;;;;6256131;22;20086;-77
2023/02/28 07:28:03;;;;;;;7.18;6.60;;;14.70;53.80;;;;;;6256094;22;20008;-79
2023/02/28 07:30:28;;;;;;;7.00;6.50;;;14.70;53.80;;;;;;6256124;22;20012;-78
2023/02/28 07:32:55;;;;;;;6.00;5.63;;;14.70;54.40;;;;;;6256303;22;19996;-77
2023/02/28 07:35:22;;;;;;;5.97;5.68;;;14.70;53.80;;;;;;6256151;22;20019;-80
2023/02/28 07:37:47;;;;;;;5.65;5.15;;;14.70;53.80;;;;;;6256005;22;19996;-82
2023/02/28 07:40:13;;;;;;;5.47;5.03;;;14.70;53.70;;;;;;6256334;22;20019;-79
2023/02/28 07:42:42;;;;;;;5.20;4.82;;;14.70;53.70;;;;;;6256338;22;20024;-79
2023/02/28 07:45:11;;;;;;;4.70;4.40;;;14.70;53.60;;;;;;6256059;22;20327;-79
2023/02/28 07:47:37;;;;;;;4.40;4.10;;;14.70;53.70;;;;;;6255950;22;20008;-77
2023/02/28 07:50:03;;;;;;;6.82;4.32;;;14.70;53.50;;;;;;6256095;22;19996;-75
2023/02/28 07:52:29;;;;;;;3.95;3.65;;;14.70;53.50;;;;;;6256154;22;20458;-83
2023/02/28 07:54:54;;;;;;;11.23;3.53;;;15.50;53.80;;;;;;6256083;22;20001;-82
2023/02/28 07:57:20;;;;;;;4.97;3.33;;;14.70;53.30;;;;;;6257888;22;20023;-82
2023/02/28 07:59:45;;;;;;;3.10;2.80;;;14.70;53.20;;;;;;6260949;22;20023;-78
2023/02/28 08:02:16;;;;;;;3.17;2.97;;;14.70;53.10;;;;;;6255944;22;20028;-79
2023/02/28 08:04:42;;;;;;;3.83;2.90;;;14.70;53.20;;;;;;6246318;22;20388;-84
2023/02/28 08:07:08;;;;;;;4.47;2.50;;;14.70;53.20;;;;;;6255783;22;20011;-79
2023/02/28 08:09:34;;;;;;;4.30;2.10;;;14.70;53.20;;;;;;6256050;22;20492;-77
2023/02/28 08:11:59;;;;;;;6.93;2.30;;;14.70;53.30;;;;;;6246000;22;20000;-79
2023/02/28 08:14:25;;;;;;;2.03;1.80;;;14.70;53.40;;;;;;6256333;22;20325;-83
2023/02/28 08:16:51;;;;;;;3.90;2.00;;;14.70;53.40;;;;;;6255348;22;20156;-82
2023/02/28 08:19:16;;;;;;;2.95;1.70;;;14.70;53.40;;;;;;6244142;23;20026;-78
2023/02/28 08:21:42;;;;;;;4.80;2.00;;;14.70;53.50;;;;;;6255731;22;19996;-78
2023/02/28 08:24:07;;;;;;;2.22;1.75;;;14.70;53.50;;;;;;6255625;22;20100;-81
2023/02/28 08:26:33;;;;;;;2.83;1.58;;;14.70;53.50;;;;;;6255653;22;20008;-76
2023/02/28 08:28:59;;;;;;;2.85;1.50;;;14.70;53.40;;;;;;6255705;22;19996;-78
2023/02/28 08:31:24;;;;;;;5.68;1.45;;;14.70;53.50;;;;;;6255729;22;20451;-76
2023/02/28 08:33:51;;;;;;;7.78;2.35;;;14.70;53.70;;;;;;6255596;22;20098;-77
2023/02/28 08:36:17;;;;;;;3.22;1.02;;;14.70;53.60;;;;;;6245360;22;20027;-78
2023/02/28 08:38:43;;;;;;;4.95;1.30;;;14.70;54.30;;;;;;6255584;22;19996;-77
2023/02/28 08:41:12;;;;;;;2.00;1.10;;;14.70;53.80;;;;;;6255367;22;20097;-79
2023/02/28 08:43:39;;;;;;;4.05;1.48;;;14.70;53.70;;;;;;6255322;22;20000;-81
2023/02/28 08:46:05;;;;;;;2.45;1.00;;;14.70;53.70;;;;;;6251885;22;19999;-81
2023/02/28 08:48:32;;;;;;;10.00;1.33;;;14.70;53.60;;;;;;6255487;22;20014;-80
2023/02/28 08:51:01;;;;;;;4.60;1.20;;;14.70;53.70;;;;;;6245207;22;19992;-80
2023/02/28 08:53:27;;;;;;;7.97;1.33;;;14.70;53.50;;;;;;6245187;22;20000;-81
2023/02/28 08:56:01;;;;;;;5.93;1.02;;;14.70;53.50;;;;;;6245669;22;20351;-78
2023/02/28 08:58:27;;;;;;;4.47;1.35;;;14.70;53.50;;;;;;6255433;22;20000;-77
2023/02/28 09:00:53;;;;;;;5.63;1.00;;;14.70;53.90;;;;;;6255413;22;20050;-77
2023/02/28 09:03:19;;;;;;;4.32;1.00;;;14.70;53.50;;;;;;6255075;22;20012;-77
2023/02/28 09:06:00;;;;;;;5.57;1.30;;;14.70;53.50;;;;;;6255406;22;19996;-77
2023/02/28 09:08:28;;;;;;;4.00;1.30;;;14.70;53.40;;;;;;6255344;22;20537;-77
2023/02/28 09:10:54;;;;;;;0.90;0.60;;;14.70;53.40;;;;;;6255267;22;20019;-77
2023/02/28 09:13:20;;;;;;;2.55;0.95;;;14.70;53.50;;;;;;6245486;22;19996;-77
2023/02/28 09:15:46;;;;;;;8.35;1.63;;;14.70;53.40;;;;;;6255346;22;20000;-77
2023/02/28 09:18:12;;;;;;;3.97;0.90;;;14.70;53.50;;;;;;6255165;22;20071;-77
2023/02/28 09:20:39;;;;;;;2.92;0.70;;;14.70;54.10;;;;;;6245204;22;19996;-77
2023/02/28 09:23:06;;;;;;;2.20;0.73;;;14.70;53.50;;;;;;6255247;22;19992;-77
2023/02/28 09:25:32;;;;;;;3.17;0.73;;;14.70;53.50;;;;;;6255206;22;20451;-77
2023/02/28 09:27:57;;;;;;;9.43;1.10;;;14.70;54.10;;;;;;6254948;22;20004;-77
2023/02/28 09:30:23;;;;;;;3.88;0.80;;;14.70;54.10;;;;;;6255089;22;19992;-77
2023/02/28 09:32:51;;;;;;;2.47;0.77;;;14.70;53.50;;;;;;6255198;22;20001;-77
2023/02/28 09:35:18;;;;;;;0.82;0.57;;;14.70;53.40;;;;;;6245149;22;20049;-77
2023/02/28 09:37:45;;;;;;;3.85;0.70;;;14.70;53.40;;;;;;6255128;22;20065;-77
2023/02/28 09:40:12;;;;;;;2.05;0.70;;;14.60;53.40;;;;;;6243324;23;20000;-77
2023/02/28 09:42:38;;;;;;;0.68;0.45;;;14.60;53.40;;;;;;6254943;22;19996;-77
2023/02/28 09:45:36;;;;;;;0.80;0.50;;;14.70;53.40;;;;;;6243412;23;20020;-77
2023/02/28 09:48:10;;;;;;;1.83;0.80;;;14.70;53.40;;;;;;6244237;23;20014;-77
2023/02/28 09:50:41;;;;;;;1.60;0.73;;;14.60;53.40;;;;;;6244780;22;20436;-77
2023/02/28 09:53:22;;;;;;;3.40;0.80;;;14.60;53.40;;;;;;6243236;23;20439;-77
2023/02/28 09:55:59;;;;;;;1.40;0.75;;;14.60;53.40;;;;;;6254897;22;20023;-77
2023/02/28 09:58:50;;;;;;;2.40;0.60;;;14.70;53.40;;;;;;6254932;22;20045;-76
2023/02/28 10:01:42;;;;;;;1.13;0.70;;;14.70;61.80;;;;;;6230465;22;20011;-77
2023/02/28 10:04:36;;;;;;;0.68;0.57;;;14.60;53.30;;;;;;6254722;23;20019;-77
2023/02/28 10:07:06;;;;;;;1.33;0.70;;;14.60;53.30;;;;;;6254962;22;20009;-77
2023/02/28 10:09:33;;;;;;;2.67;0.70;;;14.60;53.30;;;;;;6255400;22;20019;-79
2023/02/28 10:12:06;;;;;;;1.52;0.70;;;14.60;53.20;;;;;;6254918;22;20312;-80
2023/02/28 10:14:37;;;;;;;1.90;0.68;;;14.70;53.30;;;;;;6254849;22;20016;-80
2023/02/28 10:17:13;;;;;;;1.17;0.88;;;14.70;53.20;;;;;;6254788;22;20427;-80
2023/02/28 10:19:44;;;;;;;1.75;0.73;;;14.70;53.20;;;;;;6254900;22;19992;-80
2023/02/28 10:22:18;;;;;;;1.20;0.70;;;14.70;53.10;;;;;;6254874;22;20003;-80
2023/02/28 10:24:51;;;;;;;1.38;0.63;;;14.70;53.00;;;;;;6254831;22;19993;-80
2023/02/28 10:27:22;;;;;;;1.30;0.65;;;14.70;52.90;;;;;;6254941;22;20008;-80
2023/02/28 10:29:54;;;;;;;0.50;0.40;;;14.70;52.80;;;;;;6244515;22;20053;-77
2023/02/28 10:32:32;;;;;;;1.55;0.90;;;14.80;52.90;;;;;;6254853;22;20451;-77
2023/02/28 10:35:02;;;;;;;1.45;0.63;;;14.80;53.40;;;;;;6254828;22;20060;-77
2023/02/28 10:37:28;;;;;;;0.70;0.50;;;14.90;52.60;;;;;;6254693;22;19992;-77
2023/02/28 10:39:54;;;;;;;1.15;0.80;;;14.90;52.50;;;;;;6255312;22;20043;-77
2023/02/28 10:42:28;;;;;;;1.02;0.50;;;14.90;52.90;;;;;;6247019;22;20070;-77
2023/02/28 10:45:15;;;;;;;1.58;0.90;;;15.00;52.10;;;;;;6256832;22;20049;-77
2023/02/28 10:48:25;;;;;;;1.23;0.80;;;15.10;52.00;;;;;;6246731;22;20011;-77
2023/02/28 10:50:54;;;;;;;1.70;1.00;;;15.20;51.80;;;;;;6256574;22;20008;-77
2023/02/28 10:53:26;;;;;;;1.92;1.00;;;15.30;51.50;;;;;;6256702;22;19996;-77
2023/02/28 10:55:57;;;;;;;2.70;0.70;;;15.30;51.40;;;;;;6256612;22;20031;-77
2023/02/28 10:58:27;;;;;;;1.15;0.70;;;15.40;51.60;;;;;;6256765;22;20038;-77
2023/02/28 11:00:53;;;;;;;0.70;0.70;;;15.40;51.70;;;;;;6256629;22;20028;-77
2023/02/28 11:03:30;;;;;;;1.75;0.77;;;15.40;51.80;;;;;;6256323;22;20008;-77
2023/02/28 11:05:57;;;;;;;1.52;0.80;;;15.30;52.10;;;;;;6256612;22;20082;-77
2023/02/28 11:08:24;;;;;;;1.25;0.95;;;15.30;52.30;;;;;;6256433;22;20061;-77
2023/02/28 11:11:04;;;;;;;1.33;0.75;;;15.30;52.40;;;;;;6256426;22;19996;-77
2023/02/28 11:13:34;;;;;;;0.90;0.63;;;15.30;52.50;;;;;;6256615;22;20062;-77
2023/02/28 11:16:04;;;;;;;0.80;0.68;;;15.30;52.70;;;;;;6246223;22;20042;-77
2023/02/28 11:18:40;;;;;;;3.13;0.80;;;15.30;52.70;;;;;;6244653;23;20049;-77
2023/02/28 11:21:07;;;;;;;2.03;0.90;;;15.30;52.90;;;;;;6256441;22;20343;-77
2023/02/28 11:23:37;;;;;;;0.90;0.60;;;15.30;53.60;;;;;;6256385;22;19996;-77
2023/02/28 11:26:09;;;;;;;1.53;0.87;;;15.30;53.10;;;;;;6246046;22;19996;-77
2023/02/28 11:28:42;;;;;;;1.27;0.82;;;15.30;53.10;;;;;;6256466;22;20046;-77
2023/02/28 11:31:13;;;;;;;1.63;0.82;;;15.40;53.80;;;;;;6256316;22;20000;-77
2023/02/28 11:33:48;;;;;;;0.80;0.60;;;15.40;53.10;;;;;;6256220;22;19992;-77
2023/02/28 11:36:27;;;;;;;0.80;0.80;;;15.50;53.00;;;;;;6256398;22;20043;-77
2023/02/28 11:39:02;;;;;;;1.00;0.60;;;15.60;52.60;;;;;;6246366;22;19996;-77
2023/02/28 11:41:39;;;;;;;0.57;0.57;;;15.70;52.50;;;;;;6256375;22;20427;-77
2023/02/28 11:44:16;;;;;;;0.90;0.60;;;15.80;52.30;;;;;;6256270;22;20081;-78
2023/02/28 11:46:53;;;;;;;0.93;0.70;;;15.90;52.10;;;;;;6256095;22;20436;-77
2023/02/28 11:49:49;;;;;;;1.42;0.80;;;16.00;51.90;;;;;;6256198;22;20012;-77
2023/02/28 11:52:34;;;;;;;0.80;0.63;;;16.20;51.70;;;;;;6256082;22;20388;-77
2023/02/28 11:55:07;;;;;;;0.65;0.60;;;16.30;51.40;;;;;;6256007;22;19996;-77
2023/02/28 11:57:45;;;;;;;0.82;0.60;;;16.30;51.30;;;;;;6256116;22;20000;-77
2023/02/28 12:00:37;;;;;;;0.80;0.60;;;16.40;51.40;;;;;;6256185;22;19996;-77
2023/02/28 12:03:28;;;;;;;0.60;0.50;;;16.50;51.40;;;;;;6231257;22;20042;-77
2023/02/28 12:06:11;;;;;;;1.17;0.60;;;16.50;51.20;;;;;;6255893;22;20000;-77
2023/02/28 12:09:00;;;;;;;0.63;0.63;;;16.60;51.20;;;;;;6255997;22;20087;-77
2023/02/28 12:11:44;;;;;;;0.80;0.47;;;16.70;51.10;;;;;;6255929;22;20458;-78
2023/02/28 12:14:54;;;;;;;0.47;0.43;;;16.80;50.80;;;;;;6255830;23;20000;-77
2023/02/28 12:17:44;;;;;;;0.63;0.55;;;16.80;50.80;;;;;;6221010;22;20000;-77
2023/02/28 12:20:31;;;;;;;0.50;0.43;;;16.90;50.80;;;;;;6255819;23;20003;-77
2023/02/28 12:23:18;;;;;;;0.63;0.63;;;17.00;50.50;;;;;;6255747;22;20027;-77
2023/02/28 12:26:22;;;;;;;1.15;0.82;;;17.00;50.50;;;;;;6255721;22;20023;-77
2023/02/28 12:28:53;;;;;;;1.02;0.80;;;17.10;50.50;;;;;;6192221;23;20009;-77
2023/02/28 12:31:27;;;;;;;1.02;0.60;;;17.20;50.10;;;;;;6192281;23;19998;-77
2023/02/28 12:34:09;;;;;;;0.50;0.50;;;17.30;50.10;;;;;;6227656;22;20004;-77
2023/02/28 12:36:36;;;;;;;0.57;0.50;;;17.40;50.30;;;;;;6255894;22;20083;-77
2023/02/28 12:39:07;;;;;;;0.88;0.50;;;17.40;49.90;;;;;;6255549;22;19992;-77
2023/02/28 12:41:48;;;;;;;0.40;0.40;;;17.50;49.80;;;;;;6255585;22;20000;-77
2023/02/28 12:44:35;;;;;;;0.50;0.50;;;17.60;49.60;;;;;;6255618;22;20397;-77
2023/02/28 12:47:08;;;;;;;1.45;0.60;;;17.60;49.70;;;;;;6255353;22;20008;-77
2023/02/28 12:49:50;;;;;;;0.52;0.47;;;17.70;49.70;;;;;;6255435;22;20027;-77
2023/02/28 12:52:24;;;;;;;0.30;0.30;;;17.80;49.10;;;;;;6255402;22;20004;-77
2023/02/28 12:55:03;;;;;;;0.85;0.40;;;17.90;49.30;;;;;;6255594;22;20002;-77
2023/02/28 12:57:48;;;;;;;0.70;0.53;;;17.80;49.00;;;;;;6255460;22;20015;-77
2023/02/28 13:00:20;;;;;;;0.57;0.30;;;17.90;49.10;;;;;;6255475;22;20302;-77
2023/02/28 13:03:10;;;;;;;0.52;0.40;;;18.00;48.90;;;;;;6244968;22;20008;-77
2023/02/28 13:06:16;;;;;;;0.57;0.52;;;18.00;48.90;;;;;;6255481;22;20000;-77
2023/02/28 13:09:04;;;;;;;0.95;0.73;;;18.00;48.80;;;;;;6255459;22;20004;-77